Tinker Air Force Base
KTIK : now visible

Airfield :











YOU CAN JOIN US ON...

 
LOGIN :

Register | Disclaimer

   EN    FR    IT 

 









Legend :    VFR   Marginal VFR   IFR   Intensive IFR   Very Intensive IFR
Visi :
Ceiling :
>= 8 km
>= 3000ft
5 to 8 km
1000 to 3000 ft
1500m to 5 km
500 to 1000 ft
800 to 1500m
200 to 500 ft
< 800m
< 200 ft
Symbols :   Thunderstorms  Fog  Heavy snow  Heavy precipitations  Wind > 20 kt






- Airport Elevation : 1291 ft


KTIK - Tinker Air Force Base

CURRENT METAR :
  • 130456Z AUTO 18009KT 10SM FEW150 SCT170 05/01 A3000 RMK AO2 SLP170 T00500009

EXPIRED METARs :
  • 130356Z AUTO 17008KT 10SM SCT180 06/01 A3000 RMK AO2 SLP170 T00600009
  • 130256Z AUTO 18008KT 10SM SCT041 OVC200 07/01 A3002 RMK AO2 SLP177 T00710012 50000

TAF TAF KTIK
Valid from the 13 at 02:00 until the 14 at 08:00 UTC


130200Z 1302/1408 18006KT 9999 SKC QNH3002INS
BECMG 1303/1304 VRB06KT 9999 -RA BKN030 QNH3001INS
BECMG 1305/1306 VRB06KT 9999 NSW BKN020 QNH2992INS
BECMG 1314/1315 VRB06KT 9999 SCT010 QNH2986INS
BECMG 1320/1321 VRB06KT 9999 SKC QNH2985INS TX10/1322Z TN03/1312Z



MET'MAP, your aeronautical weather chart ! - Copyright ORBIFLY December 2007 - Disclaimer

ORBIFLY MET'MAP TEAM :

Programming & Development : Alexandra Zaïnal
Concept & original design : Baudouin d'Aumeries
Assistance for programming : Marc-Olivier Méhu
Technical & hardware support : Manuel Goepfert

Contact : metmap@orbifly.com




SOURCES & CREDITS :

   NOAA       Earth
Advisory